Time;durP1;ratioP1;P1;durP2;ratioP2;P2;SDS_P1;SDS_P2;PMS_P1;PMS_P2;Temp;Humidity;BMP_temperature;BMP_pressure;BME280_temperature;BME280_humidity;BME280_pressure;Samples;Min_cycle;Max_cycle;Signal;HPM_P1;HPM_P2
2021/01/03 00:00:22;;;;;;;1.70;1.50;;;3.70;98.20;;;;;;5049498;28;20506;-79
2021/01/03 00:02:49;;;;;;;1.67;1.50;;;3.80;98.20;;;;;;5042841;28;20555;-80
2021/01/03 00:05:17;;;;;;;1.60;1.40;;;3.80;98.20;;;;;;5040663;28;21029;-81
2021/01/03 00:07:44;;;;;;;1.63;1.40;;;3.70;98.20;;;;;;5030904;28;20874;-80
2021/01/03 00:10:13;;;;;;;1.63;1.40;;;3.70;98.20;;;;;;5029031;28;20508;-81
2021/01/03 00:12:40;;;;;;;1.70;1.40;;;3.70;98.20;;;;;;5026240;28;20973;-79
2021/01/03 00:15:14;;;;;;;1.70;1.50;;;3.70;98.20;;;;;;5043449;28;20498;-82
2021/01/03 00:17:40;;;;;;;1.67;1.50;;;3.70;98.20;;;;;;5038619;28;20476;-79
2021/01/03 00:20:09;;;;;;;1.70;1.50;;;3.70;98.20;;;;;;5031062;28;20487;-81
2021/01/03 00:22:36;;;;;;;1.60;1.40;;;3.70;98.20;;;;;;5039559;28;20471;-81
2021/01/03 00:25:03;;;;;;;1.63;1.40;;;3.70;98.20;;;;;;5031343;28;20494;-81
2021/01/03 00:27:33;;;;;;;1.67;1.40;;;3.70;98.20;;;;;;5029686;28;20487;-82
2021/01/03 00:30:00;;;;;;;1.67;1.40;;;3.70;98.20;;;;;;5030981;28;21126;-82
2021/01/03 00:32:27;;;;;;;1.60;1.37;;;3.70;98.20;;;;;;5031227;28;20470;-81
2021/01/03 00:34:54;;;;;;;1.70;1.50;;;3.80;98.20;;;;;;5030233;28;20526;-82
2021/01/03 00:37:21;;;;;;;1.70;1.53;;;3.80;98.20;;;;;;5030919;28;20910;-81
2021/01/03 00:39:49;;;;;;;1.60;1.43;;;3.80;98.20;;;;;;5016851;28;20494;-81
2021/01/03 00:42:15;;;;;;;1.63;1.40;;;3.80;98.20;;;;;;5009869;28;20460;-81
2021/01/03 00:44:42;;;;;;;1.70;1.40;;;3.80;98.20;;;;;;5026455;28;20475;-81
2021/01/03 00:47:09;;;;;;;1.70;1.50;;;3.80;98.20;;;;;;5029475;28;20499;-81
2021/01/03 00:49:36;;;;;;;1.60;1.50;;;3.80;98.20;;;;;;5025014;28;20696;-79
2021/01/03 00:52:02;;;;;;;1.70;1.40;;;3.80;98.20;;;;;;5030980;28;20503;-81
2021/01/03 00:54:29;;;;;;;1.63;1.47;;;3.80;98.20;;;;;;5033630;28;20466;-81
2021/01/03 00:56:55;;;;;;;1.60;1.40;;;3.80;98.20;;;;;;5024748;28;20496;-81
2021/01/03 00:59:22;;;;;;;1.60;1.40;;;3.80;98.20;;;;;;5028839;28;20487;-81
2021/01/03 01:01:48;;;;;;;1.67;1.50;;;3.80;98.20;;;;;;5033041;28;20521;-80
2021/01/03 01:04:16;;;;;;;1.60;1.40;;;3.80;98.20;;;;;;5033269;28;20464;-81
2021/01/03 01:06:43;;;;;;;1.63;1.40;;;3.80;98.20;;;;;;5023680;28;20464;-81
2021/01/03 01:09:21;;;;;;;1.63;1.40;;;3.80;98.20;;;;;;5021433;28;20484;-80
2021/01/03 01:11:48;;;;;;;1.60;1.40;;;3.80;98.20;;;;;;5037976;28;20483;-82
2021/01/03 01:14:19;;;;;;;1.70;1.53;;;3.80;98.20;;;;;;5028248;28;20507;-79
2021/01/03 01:16:48;;;;;;;1.70;1.60;;;3.80;98.20;;;;;;5033604;28;20479;-81
2021/01/03 01:19:15;;;;;;;1.70;1.50;;;3.80;98.20;;;;;;5016003;28;20484;-81
2021/01/03 01:21:42;;;;;;;1.63;1.50;;;3.80;98.20;;;;;;5024014;28;20983;-82
2021/01/03 01:24:12;;;;;;;1.63;1.40;;;3.80;98.20;;;;;;5045082;28;20479;-81
2021/01/03 01:26:39;;;;;;;1.63;1.40;;;3.80;98.20;;;;;;5032836;28;20522;-79
2021/01/03 01:29:05;;;;;;;1.60;1.40;;;3.80;98.20;;;;;;5042673;28;20623;-81
2021/01/03 01:31:32;;;;;;;1.60;1.40;;;3.80;98.20;;;;;;5033546;28;20455;-82
2021/01/03 01:34:01;;;;;;;1.60;1.40;;;3.80;98.20;;;;;;5024381;28;20467;-81
2021/01/03 01:36:29;;;;;;;1.60;1.40;;;3.80;98.20;;;;;;5035241;28;20977;-78
2021/01/03 01:38:58;;;;;;;1.60;1.40;;;3.80;98.20;;;;;;5043421;28;20464;-81
2021/01/03 01:41:25;;;;;;;1.70;1.40;;;3.80;98.20;;;;;;5048434;28;20476;-79
2021/01/03 01:43:51;;;;;;;1.60;1.40;;;3.80;98.20;;;;;;5040800;28;20973;-80
2021/01/03 01:46:26;;;;;;;1.70;1.50;;;3.80;98.20;;;;;;5058283;28;20465;-81
2021/01/03 01:48:53;;;;;;;1.67;1.40;;;3.80;98.20;;;;;;5033987;28;20459;-79
2021/01/03 01:51:26;;;;;;;1.63;1.40;;;3.80;98.20;;;;;;5021833;28;20465;-80
2021/01/03 01:54:05;;;;;;;1.70;1.40;;;3.80;98.20;;;;;;5038816;28;20470;-81
2021/01/03 01:56:38;;;;;;;1.60;1.40;;;3.80;98.20;;;;;;5038395;28;20456;-80
2021/01/03 01:59:12;;;;;;;1.63;1.40;;;3.80;98.20;;;;;;5037986;28;21181;-81
2021/01/03 02:01:46;;;;;;;1.63;1.40;;;3.80;98.20;;;;;;5037545;28;20459;-81
2021/01/03 02:04:20;;;;;;;1.60;1.40;;;3.80;98.20;;;;;;5038273;28;20510;-81
2021/01/03 02:06:51;;;;;;;1.60;1.40;;;3.80;98.20;;;;;;5038019;28;20494;-81
2021/01/03 02:09:26;;;;;;;1.70;1.50;;;3.80;98.20;;;;;;5044068;28;20487;-81
2021/01/03 02:12:08;;;;;;;1.70;1.50;;;3.80;98.20;;;;;;5036499;28;20522;-80
2021/01/03 02:14:36;;;;;;;1.60;1.40;;;3.80;98.20;;;;;;5049725;22;20452;-80
2021/01/03 02:17:05;;;;;;;1.60;1.40;;;3.80;98.20;;;;;;5061281;28;20502;-81
2021/01/03 02:19:34;;;;;;;1.63;1.33;;;3.80;98.20;;;;;;5060781;28;20497;-81
2021/01/03 02:22:09;;;;;;;1.87;1.63;;;3.80;98.20;;;;;;5040477;23;20539;-81
2021/01/03 02:24:43;;;;;;;1.60;1.40;;;3.80;98.20;;;;;;5009485;28;20464;-81
2021/01/03 02:27:16;;;;;;;1.60;1.37;;;3.80;98.20;;;;;;5018219;28;20911;-81
2021/01/03 02:29:45;;;;;;;1.67;1.50;;;3.80;98.20;;;;;;5001891;28;20489;-81
2021/01/03 02:32:13;;;;;;;1.67;1.40;;;3.80;98.20;;;;;;5001412;28;20462;-79
2021/01/03 02:34:43;;;;;;;1.63;1.40;;;3.80;98.20;;;;;;4993788;28;20525;-80
2021/01/03 02:37:15;;;;;;;2.03;1.83;;;3.80;98.20;;;;;;5011949;28;20855;-80
2021/01/03 02:39:49;;;;;;;1.70;1.50;;;3.80;98.20;;;;;;5011574;28;20533;-81
2021/01/03 02:42:19;;;;;;;1.70;1.47;;;3.80;98.20;;;;;;5016003;28;20507;-81
2021/01/03 02:44:47;;;;;;;1.60;1.40;;;3.80;98.20;;;;;;5014407;28;20487;-79
2021/01/03 02:47:13;;;;;;;1.60;1.40;;;3.80;98.20;;;;;;5025198;28;20986;-80
2021/01/03 02:49:41;;;;;;;1.60;1.40;;;3.80;98.20;;;;;;5017092;28;20635;-80
2021/01/03 02:52:13;;;;;;;10.70;10.03;;;3.80;98.20;;;;;;5016304;28;20464;-80
2021/01/03 02:54:40;;;;;;;1.63;1.37;;;3.80;98.20;;;;;;5010114;28;20468;-81
2021/01/03 02:57:06;;;;;;;1.70;1.50;;;3.80;98.20;;;;;;5020588;28;20480;-81
2021/01/03 02:59:35;;;;;;;1.63;1.40;;;3.70;98.20;;;;;;5019543;28;20480;-81
2021/01/03 03:02:02;;;;;;;1.60;1.40;;;3.70;98.20;;;;;;5016288;28;20464;-81
2021/01/03 03:04:28;;;;;;;1.60;1.30;;;3.70;98.20;;;;;;5018287;28;20468;-82
2021/01/03 03:06:55;;;;;;;1.63;1.50;;;3.70;98.20;;;;;;5015980;28;20492;-79
2021/01/03 03:09:21;;;;;;;1.60;1.30;;;3.70;98.20;;;;;;5014626;28;20489;-79
2021/01/03 03:11:48;;;;;;;1.60;1.30;;;3.70;98.20;;;;;;5012996;28;20893;-80
2021/01/03 03:14:15;;;;;;;1.80;1.60;;;3.70;98.20;;;;;;5014319;28;20464;-81
2021/01/03 03:16:42;;;;;;;1.70;1.60;;;3.70;98.20;;;;;;5013075;28;20464;-81
2021/01/03 03:19:09;;;;;;;1.70;1.50;;;3.70;98.20;;;;;;5060622;23;20553;-81
2021/01/03 03:21:35;;;;;;;1.63;1.40;;;3.70;98.20;;;;;;5058663;28;20454;-80
2021/01/03 03:24:02;;;;;;;1.67;1.40;;;3.70;98.20;;;;;;5055505;28;20451;-80
2021/01/03 03:26:29;;;;;;;1.63;1.50;;;3.70;98.20;;;;;;5061796;28;20599;-81
2021/01/03 03:28:55;;;;;;;1.67;1.40;;;3.70;98.20;;;;;;5051760;28;20452;-81
2021/01/03 03:31:27;;;;;;;1.60;1.40;;;3.70;98.20;;;;;;5054345;28;20467;-80
2021/01/03 03:33:55;;;;;;;1.70;1.50;;;3.70;98.20;;;;;;5048815;28;20455;-81
2021/01/03 03:36:21;;;;;;;1.67;1.40;;;3.70;98.20;;;;;;5054769;28;20474;-81
2021/01/03 03:38:48;;;;;;;1.60;1.40;;;3.70;98.20;;;;;;5054550;28;20485;-81
2021/01/03 03:41:19;;;;;;;1.60;1.33;;;3.70;98.20;;;;;;5056571;28;20499;-80
2021/01/03 03:43:45;;;;;;;1.70;1.50;;;3.60;98.20;;;;;;5055495;28;20478;-79
2021/01/03 03:46:12;;;;;;;1.60;1.40;;;3.60;98.20;;;;;;5053170;28;20467;-81
2021/01/03 03:48:38;;;;;;;1.60;1.40;;;3.60;98.20;;;;;;5055417;28;20470;-79
2021/01/03 03:51:06;;;;;;;2.90;2.63;;;3.60;98.20;;;;;;5059454;28;20495;-81
2021/01/03 03:53:35;;;;;;;1.67;1.50;;;3.60;98.20;;;;;;5055781;28;20537;-80
2021/01/03 03:56:02;;;;;;;1.60;1.43;;;3.60;98.20;;;;;;5057767;28;20494;-81
2021/01/03 03:58:28;;;;;;;1.60;1.40;;;3.60;98.20;;;;;;5051680;28;20577;-80
2021/01/03 04:00:55;;;;;;;1.70;1.50;;;3.60;98.20;;;;;;5055257;28;20478;-80
2021/01/03 04:03:21;;;;;;;1.70;1.50;;;3.60;98.20;;;;;;5057321;28;20493;-81
2021/01/03 04:05:48;;;;;;;1.67;1.40;;;3.60;98.20;;;;;;5057589;28;20467;-81
2021/01/03 04:08:17;;;;;;;14.00;3.40;;;3.60;98.20;;;;;;5053065;28;20486;-80
2021/01/03 04:10:44;;;;;;;1.60;1.40;;;3.60;98.20;;;;;;5051608;28;20483;-81
2021/01/03 04:13:11;;;;;;;1.67;1.40;;;3.60;98.20;;;;;;5048539;28;20458;-81
2021/01/03 04:15:40;;;;;;;1.63;1.40;;;3.60;98.20;;;;;;5052617;28;20489;-80
2021/01/03 04:18:07;;;;;;;1.60;1.40;;;3.60;98.20;;;;;;5053427;28;20495;-81
2021/01/03 04:20:35;;;;;;;1.70;1.53;;;3.60;98.20;;;;;;5062258;28;20479;-80
2021/01/03 04:23:06;;;;;;;1.70;1.50;;;3.60;98.20;;;;;;5052191;28;20501;-80
2021/01/03 04:25:33;;;;;;;1.70;1.50;;;3.50;98.20;;;;;;5059291;28;20926;-82
2021/01/03 04:28:02;;;;;;;1.67;1.40;;;3.60;98.20;;;;;;5060483;28;20458;-80
2021/01/03 04:30:29;;;;;;;1.60;1.40;;;3.50;98.20;;;;;;5058942;28;20478;-81
2021/01/03 04:32:55;;;;;;;1.90;1.80;;;3.50;98.20;;;;;;5061248;28;20454;-81
2021/01/03 04:35:23;;;;;;;2.23;2.03;;;3.50;98.20;;;;;;5045088;28;20463;-79
2021/01/03 04:37:52;;;;;;;1.67;1.40;;;3.60;98.20;;;;;;5086486;23;20503;-81
2021/01/03 04:40:23;;;;;;;1.70;1.50;;;3.50;98.20;;;;;;5038712;28;20487;-80
2021/01/03 04:42:54;;;;;;;1.67;1.40;;;3.60;98.20;;;;;;5042147;28;20474;-83
2021/01/03 04:45:27;;;;;;;1.70;1.50;;;3.60;98.20;;;;;;5040359;28;20490;-81
2021/01/03 04:47:57;;;;;;;1.63;1.40;;;3.50;98.20;;;;;;5034872;28;20443;-80
2021/01/03 04:51:05;;;;;;;1.63;1.40;;;3.50;98.20;;;;;;5042158;28;20475;-81
2021/01/03 04:53:42;;;;;;;1.63;1.40;;;3.50;98.20;;;;;;5042095;28;20466;-80
2021/01/03 04:56:20;;;;;;;1.60;1.40;;;3.50;98.20;;;;;;5042145;28;20454;-80
2021/01/03 04:59:00;;;;;;;1.60;1.40;;;3.50;98.20;;;;;;5041163;28;20472;-79
2021/01/03 05:01:54;;;;;;;1.60;1.40;;;3.50;98.20;;;;;;5041133;28;20454;-80
2021/01/03 05:04:54;;;;;;;1.60;1.40;;;3.50;98.20;;;;;;5020429;28;20461;-78
2021/01/03 05:07:26;;;;;;;1.70;1.53;;;3.50;98.20;;;;;;5028666;28;20479;-80
2021/01/03 05:10:10;;;;;;;1.70;1.60;;;3.50;98.20;;;;;;5040621;28;20510;-80
2021/01/03 05:12:49;;;;;;;1.70;1.50;;;3.50;98.20;;;;;;5040796;28;20471;-80
2021/01/03 05:15:23;;;;;;;3.87;3.60;;;3.50;98.20;;;;;;5036575;28;20459;-79
2021/01/03 05:17:50;;;;;;;1.60;1.40;;;3.50;98.20;;;;;;5037020;28;20518;-81
2021/01/03 05:20:17;;;;;;;2.00;1.80;;;3.50;98.20;;;;;;5044037;28;20484;-80
2021/01/03 05:22:44;;;;;;;1.63;1.40;;;3.50;98.20;;;;;;5040296;28;20464;-80
2021/01/03 05:25:13;;;;;;;1.70;1.50;;;3.50;98.20;;;;;;5040437;28;20464;-80
2021/01/03 05:27:39;;;;;;;1.60;1.40;;;3.50;98.20;;;;;;5037867;28;20463;-81
2021/01/03 05:30:18;;;;;;;1.70;1.40;;;3.50;98.20;;;;;;5033584;28;20491;-81
2021/01/03 05:32:46;;;;;;;1.60;1.40;;;3.50;98.20;;;;;;5041040;28;20448;-81
2021/01/03 05:35:24;;;;;;;1.60;1.40;;;3.50;98.20;;;;;;5040767;28;20463;-80
2021/01/03 05:37:53;;;;;;;1.70;1.40;;;3.50;98.20;;;;;;5036109;28;20475;-81
2021/01/03 05:40:25;;;;;;;1.60;1.40;;;3.50;98.20;;;;;;5028466;28;20487;-80
2021/01/03 05:43:06;;;;;;;1.70;1.43;;;3.50;98.20;;;;;;5019856;28;20864;-80
2021/01/03 05:45:34;;;;;;;1.63;1.37;;;3.50;98.20;;;;;;5032719;28;20545;-81
2021/01/03 05:48:04;;;;;;;1.80;1.70;;;3.50;98.20;;;;;;5040742;28;20479;-78
2021/01/03 05:50:33;;;;;;;1.63;1.40;;;3.50;98.20;;;;;;5040127;28;21052;-81
2021/01/03 05:53:07;;;;;;;1.60;1.40;;;3.50;98.20;;;;;;5039746;28;20459;-82
2021/01/03 05:55:36;;;;;;;1.70;1.50;;;3.50;98.20;;;;;;5020354;28;20449;-80
2021/01/03 05:58:12;;;;;;;1.60;1.40;;;3.50;98.20;;;;;;5033054;28;21055;-81
2021/01/03 06:00:40;;;;;;;1.70;1.47;;;3.50;98.20;;;;;;5032423;28;20782;-81
2021/01/03 06:03:27;;;;;;;1.67;1.40;;;3.50;98.20;;;;;;5032961;28;20460;-80
2021/01/03 06:06:00;;;;;;;1.70;1.50;;;3.50;98.20;;;;;;5028406;28;20550;-80
2021/01/03 06:08:28;;;;;;;1.70;1.40;;;3.50;98.20;;;;;;5029213;28;20517;-81
2021/01/03 06:10:59;;;;;;;1.77;1.67;;;3.50;98.20;;;;;;5024410;28;20523;-80
2021/01/03 06:13:26;;;;;;;1.70;1.50;;;3.50;98.20;;;;;;5043569;28;20471;-81
2021/01/03 06:15:57;;;;;;;1.70;1.50;;;3.50;98.20;;;;;;5037009;28;20636;-80
2021/01/03 06:18:36;;;;;;;1.70;1.57;;;3.50;98.20;;;;;;5037974;28;20484;-80
2021/01/03 06:21:03;;;;;;;1.70;1.40;;;3.50;98.20;;;;;;5047864;28;20498;-80
2021/01/03 06:23:35;;;;;;;1.60;1.40;;;3.50;98.20;;;;;;5039526;28;20495;-78
2021/01/03 06:26:09;;;;;;;1.70;1.43;;;3.50;98.20;;;;;;5019537;28;20835;-81
2021/01/03 06:28:48;;;;;;;1.70;1.50;;;3.50;98.20;;;;;;5028610;28;20452;-79
2021/01/03 06:31:45;;;;;;;1.63;1.40;;;3.50;98.20;;;;;;5024058;28;20473;-81
2021/01/03 06:34:25;;;;;;;1.60;1.40;;;3.50;98.20;;;;;;5009129;28;20471;-80
2021/01/03 06:37:02;;;;;;;1.70;1.50;;;3.50;98.20;;;;;;5022341;28;20449;-79
2021/01/03 06:39:36;;;;;;;1.67;1.40;;;3.50;98.20;;;;;;5029776;28;20494;-81
2021/01/03 06:42:05;;;;;;;1.60;1.40;;;3.50;98.20;;;;;;5018791;28;20453;-80
2021/01/03 06:45:02;;;;;;;1.67;1.40;;;3.50;98.20;;;;;;5037598;28;20947;-81
2021/01/03 06:47:59;;;;;;;1.70;1.60;;;3.50;98.20;;;;;;5024984;28;20940;-81
2021/01/03 06:51:10;;;;;;;1.67;1.47;;;3.60;98.20;;;;;;5027703;28;20480;-82
2021/01/03 06:54:05;;;;;;;1.60;1.40;;;3.50;98.20;;;;;;5022900;28;20448;-80
2021/01/03 06:57:10;;;;;;;1.60;1.40;;;3.50;98.20;;;;;;5039247;28;20455;-81
2021/01/03 07:00:12;;;;;;;1.67;1.50;;;3.50;98.20;;;;;;5036969;28;20495;-81
2021/01/03 07:02:43;;;;;;;1.70;1.47;;;3.50;98.20;;;;;;5022605;28;20451;-78
2021/01/03 07:05:11;;;;;;;1.70;1.50;;;3.50;98.20;;;;;;5037758;28;20946;-81
2021/01/03 07:07:44;;;;;;;1.70;1.53;;;3.60;98.20;;;;;;5038968;28;20460;-81
2021/01/03 07:10:17;;;;;;;1.63;1.30;;;3.50;98.20;;;;;;5039013;28;21006;-82
2021/01/03 07:12:46;;;;;;;1.70;1.50;;;3.60;98.20;;;;;;5035778;28;20453;-80
2021/01/03 07:15:16;;;;;;;1.70;1.57;;;3.50;98.20;;;;;;5018064;28;20463;-82
2021/01/03 07:18:05;;;;;;;1.63;1.30;;;3.60;98.20;;;;;;5024999;28;20483;-81
2021/01/03 07:20:36;;;;;;;1.70;1.50;;;3.60;98.20;;;;;;5041150;28;20992;-80
2021/01/03 07:23:11;;;;;;;3.30;2.80;;;3.60;98.20;;;;;;5032499;28;20470;-81
2021/01/03 07:25:44;;;;;;;1.70;1.40;;;3.60;98.20;;;;;;5056226;28;20473;-78
2021/01/03 07:28:15;;;;;;;1.60;1.40;;;3.60;98.20;;;;;;5036936;28;20624;-80
2021/01/03 07:31:14;;;;;;;1.60;1.30;;;3.60;98.20;;;;;;5058278;28;20501;-81
2021/01/03 07:33:50;;;;;;;1.63;1.40;;;3.60;98.20;;;;;;5025440;28;20464;-81
2021/01/03 07:36:40;;;;;;;1.63;1.40;;;3.60;98.20;;;;;;5017972;28;20455;-80
2021/01/03 07:39:17;;;;;;;1.60;1.40;;;3.60;98.20;;;;;;5004486;28;20860;-80
2021/01/03 07:41:45;;;;;;;1.67;1.43;;;3.60;98.20;;;;;;5017213;28;20519;-80
2021/01/03 07:44:13;;;;;;;1.70;1.50;;;3.60;98.20;;;;;;5020822;28;20466;-80
2021/01/03 07:46:50;;;;;;;1.70;1.60;;;3.60;98.20;;;;;;5024691;28;20459;-81
2021/01/03 07:49:32;;;;;;;1.67;1.43;;;3.60;98.20;;;;;;5029277;28;20531;-79
2021/01/03 07:52:00;;;;;;;1.70;1.50;;;3.60;98.20;;;;;;5025721;28;20487;-80
2021/01/03 07:54:27;;;;;;;1.67;1.43;;;3.60;98.20;;;;;;5026795;28;20487;-81
2021/01/03 07:56:54;;;;;;;1.67;1.40;;;3.60;98.20;;;;;;5027590;28;20495;-81
2021/01/03 07:59:21;;;;;;;1.70;1.60;;;3.60;98.20;;;;;;5028327;28;20579;-80
2021/01/03 08:01:51;;;;;;;1.60;1.40;;;3.60;98.20;;;;;;5025895;28;20492;-79
2021/01/03 08:04:22;;;;;;;1.67;1.40;;;3.60;98.20;;;;;;5025217;28;21061;-81
2021/01/03 08:06:49;;;;;;;1.67;1.40;;;3.60;98.20;;;;;;5030614;28;20471;-80
2021/01/03 08:09:30;;;;;;;1.70;1.53;;;3.60;98.20;;;;;;5030401;28;20994;-80
2021/01/03 08:12:08;;;;;;;1.60;1.40;;;3.60;98.20;;;;;;5029610;28;20526;-79
2021/01/03 08:14:40;;;;;;;1.67;1.40;;;3.60;98.20;;;;;;5025124;28;20459;-78
2021/01/03 08:17:07;;;;;;;1.60;1.40;;;3.60;98.20;;;;;;5028284;28;20872;-80
2021/01/03 08:19:33;;;;;;;1.70;1.40;;;3.70;98.20;;;;;;5031925;28;20487;-79
2021/01/03 08:22:01;;;;;;;1.90;1.70;;;3.70;98.20;;;;;;5033305;28;20507;-80
2021/01/03 08:24:30;;;;;;;1.60;1.40;;;3.70;98.20;;;;;;5026526;28;20959;-79
2021/01/03 08:27:00;;;;;;;1.63;1.40;;;3.70;98.20;;;;;;5029319;28;20999;-80
2021/01/03 08:29:38;;;;;;;3.87;3.67;;;3.70;98.20;;;;;;5027306;28;20829;-78
2021/01/03 08:32:12;;;;;;;1.70;1.40;;;3.70;98.20;;;;;;5027089;28;20465;-80
2021/01/03 08:34:42;;;;;;;1.60;1.40;;;3.70;98.20;;;;;;5031667;28;20467;-79
2021/01/03 08:37:19;;;;;;;5.30;5.00;;;3.70;98.20;;;;;;5031710;28;20460;-79
2021/01/03 08:39:47;;;;;;;2.33;2.13;;;3.70;98.20;;;;;;5028556;28;20513;-79
2021/01/03 08:42:20;;;;;;;1.60;1.40;;;3.70;98.20;;;;;;5029075;28;20929;-80
2021/01/03 08:44:51;;;;;;;1.70;1.40;;;3.70;98.20;;;;;;5032336;28;20500;-78
2021/01/03 08:47:27;;;;;;;1.70;1.50;;;3.70;98.20;;;;;;5029150;28;20470;-79
2021/01/03 08:50:07;;;;;;;1.67;1.43;;;3.70;98.20;;;;;;5033134;28;21216;-79
2021/01/03 08:52:33;;;;;;;1.60;1.30;;;3.70;98.20;;;;;;5029605;28;20467;-77
2021/01/03 08:55:09;;;;;;;2.23;2.03;;;3.70;98.20;;;;;;5026729;28;20456;-78
2021/01/03 08:57:38;;;;;;;1.60;1.40;;;3.70;98.20;;;;;;5026671;28;21014;-78
2021/01/03 09:00:06;;;;;;;1.60;1.40;;;3.70;98.20;;;;;;5028236;28;20496;-79
2021/01/03 09:02:33;;;;;;;1.70;1.40;;;3.70;98.20;;;;;;5025724;28;20472;-80
2021/01/03 09:05:03;;;;;;;1.60;1.40;;;3.70;98.20;;;;;;5029193;28;20524;-79
2021/01/03 09:07:35;;;;;;;1.67;1.47;;;3.80;98.20;;;;;;5028973;28;20899;-79
2021/01/03 09:10:06;;;;;;;1.60;1.40;;;3.80;98.20;;;;;;5030780;28;20515;-78
2021/01/03 09:12:36;;;;;;;1.67;1.33;;;3.80;98.20;;;;;;5032992;28;20553;-78
2021/01/03 09:15:07;;;;;;;1.70;1.40;;;3.80;98.20;;;;;;5030701;28;20456;-78
2021/01/03 09:17:37;;;;;;;1.70;1.40;;;3.80;98.20;;;;;;5033093;28;20487;-80
2021/01/03 09:20:13;;;;;;;1.67;1.40;;;3.80;98.20;;;;;;5038741;28;20495;-78
2021/01/03 09:22:44;;;;;;;1.63;1.50;;;3.80;98.20;;;;;;5041630;28;20468;-80
2021/01/03 09:25:20;;;;;;;1.60;1.40;;;3.80;98.20;;;;;;5046426;28;20470;-78
2021/01/03 09:27:51;;;;;;;1.60;1.30;;;3.80;98.20;;;;;;5046349;28;20448;-79
2021/01/03 09:30:28;;;;;;;1.77;1.57;;;3.80;98.20;;;;;;5059931;28;20478;-79
2021/01/03 09:33:06;;;;;;;1.70;1.60;;;3.80;98.20;;;;;;5040455;28;20448;-79
2021/01/03 09:35:46;;;;;;;1.70;1.40;;;3.80;98.20;;;;;;5038926;28;20534;-77
2021/01/03 09:38:54;;;;;;;1.70;1.50;;;3.80;98.20;;;;;;5042379;28;20484;-78
2021/01/03 09:41:35;;;;;;;1.60;1.40;;;3.80;98.20;;;;;;5005414;28;20459;-79
2021/01/03 09:44:11;;;;;;;1.70;1.40;;;3.90;98.20;;;;;;5031740;28;20522;-76
2021/01/03 09:46:44;;;;;;;1.60;1.40;;;3.90;98.20;;;;;;5034520;28;20478;-77
2021/01/03 09:49:23;;;;;;;1.63;1.40;;;3.90;98.20;;;;;;5040218;28;20566;-79
2021/01/03 09:52:13;;;;;;;2.00;1.80;;;3.90;98.20;;;;;;5045097;28;20486;-79
2021/01/03 09:54:52;;;;;;;1.67;1.47;;;3.90;98.20;;;;;;5035142;28;21781;-78
2021/01/03 09:57:28;;;;;;;1.60;1.40;;;3.90;98.20;;;;;;5028931;28;20472;-78
2021/01/03 09:59:56;;;;;;;1.60;1.30;;;3.90;98.20;;;;;;5035889;28;20511;-80
2021/01/03 10:02:23;;;;;;;1.60;1.40;;;3.90;98.20;;;;;;5030698;28;20521;-78
2021/01/03 10:04:50;;;;;;;1.60;1.30;;;3.90;98.20;;;;;;5031966;28;20459;-79
2021/01/03 10:07:21;;;;;;;1.60;1.40;;;3.90;98.20;;;;;;5037706;28;20456;-79
2021/01/03 10:09:53;;;;;;;1.60;1.40;;;3.90;98.20;;;;;;5033938;28;20522;-79
2021/01/03 10:12:27;;;;;;;1.70;1.50;;;3.90;98.20;;;;;;5026967;28;21099;-79
2021/01/03 10:15:10;;;;;;;1.67;1.50;;;4.00;98.20;;;;;;5029202;28;20502;-79
2021/01/03 10:17:38;;;;;;;1.60;1.40;;;4.00;98.20;;;;;;5020313;28;20511;-77
2021/01/03 10:20:34;;;;;;;1.60;1.30;;;4.00;98.20;;;;;;5025931;28;20519;-78
2021/01/03 10:23:00;;;;;;;1.70;1.40;;;4.00;98.20;;;;;;5023745;28;20480;-80
2021/01/03 10:25:27;;;;;;;1.70;1.50;;;4.00;98.20;;;;;;5025267;28;20499;-79
2021/01/03 10:28:07;;;;;;;1.60;1.30;;;4.00;98.20;;;;;;5027486;28;20475;-78
2021/01/03 10:30:34;;;;;;;1.60;1.40;;;4.00;98.20;;;;;;5029795;28;20483;-80
2021/01/03 10:33:01;;;;;;;1.73;1.63;;;4.00;98.20;;;;;;5032423;28;20499;-80
2021/01/03 10:35:28;;;;;;;1.67;1.30;;;4.00;98.20;;;;;;5031027;28;21128;-79
2021/01/03 10:37:54;;;;;;;2.00;1.80;;;4.00;98.20;;;;;;5025615;28;20480;-80
2021/01/03 10:40:21;;;;;;;1.60;1.30;;;4.00;98.20;;;;;;5029689;28;21130;-80
2021/01/03 10:42:49;;;;;;;1.60;1.40;;;4.10;98.20;;;;;;5018319;28;20503;-79
2021/01/03 10:45:18;;;;;;;1.60;1.30;;;4.10;98.20;;;;;;5028040;28;20464;-78
2021/01/03 10:47:44;;;;;;;1.60;1.30;;;4.10;98.20;;;;;;5026430;28;21156;-80
2021/01/03 10:50:12;;;;;;;1.67;1.50;;;4.10;98.20;;;;;;5029562;28;20486;-79
2021/01/03 10:52:39;;;;;;;1.70;1.50;;;4.10;98.20;;;;;;5022511;28;21280;-79
2021/01/03 10:55:07;;;;;;;1.63;1.40;;;4.10;98.20;;;;;;5027511;28;20459;-77
2021/01/03 10:57:34;;;;;;;1.70;1.40;;;4.10;98.20;;;;;;5026336;28;20475;-79
2021/01/03 11:00:00;;;;;;;1.63;1.30;;;4.10;98.20;;;;;;5023566;28;20495;-78
2021/01/03 11:02:28;;;;;;;1.70;1.50;;;4.20;98.20;;;;;;5027833;28;20574;-79
2021/01/03 11:04:54;;;;;;;1.60;1.30;;;4.20;98.20;;;;;;5027366;28;20486;-79
2021/01/03 11:07:27;;;;;;;1.70;1.40;;;4.20;98.20;;;;;;5024004;28;20610;-79
2021/01/03 11:09:53;;;;;;;1.60;1.30;;;4.20;98.20;;;;;;5023569;28;20487;-80
2021/01/03 11:12:20;;;;;;;1.67;1.40;;;4.20;98.20;;;;;;5022843;28;20496;-80
2021/01/03 11:14:46;;;;;;;1.70;1.40;;;4.30;98.20;;;;;;5026222;28;20460;-78
2021/01/03 11:17:15;;;;;;;1.70;1.50;;;4.30;98.20;;;;;;5026454;28;20500;-79
2021/01/03 11:19:43;;;;;;;1.70;1.40;;;4.30;98.20;;;;;;5026401;28;20564;-78
2021/01/03 11:22:12;;;;;;;1.60;1.30;;;4.30;98.20;;;;;;5026432;28;20567;-79
2021/01/03 11:24:39;;;;;;;1.70;1.50;;;4.30;98.20;;;;;;5025429;28;21379;-78
2021/01/03 11:27:10;;;;;;;1.60;1.30;;;4.30;98.20;;;;;;5023266;28;20526;-78
2021/01/03 11:29:39;;;;;;;1.67;1.30;;;4.20;98.20;;;;;;5022942;28;20484;-79
2021/01/03 11:32:11;;;;;;;1.67;1.40;;;4.20;98.20;;;;;;5022743;28;20527;-79
2021/01/03 11:34:38;;;;;;;1.60;1.30;;;4.20;98.20;;;;;;5023907;28;20495;-79
2021/01/03 11:37:08;;;;;;;1.67;1.40;;;4.20;98.20;;;;;;5023708;28;20467;-79
2021/01/03 11:39:35;;;;;;;1.60;1.30;;;4.20;98.20;;;;;;5021785;28;20484;-78
2021/01/03 11:42:06;;;;;;;1.63;1.40;;;4.20;98.20;;;;;;5024476;28;20495;-79
2021/01/03 11:44:32;;;;;;;1.70;1.50;;;4.20;98.20;;;;;;5026118;28;21038;-79
2021/01/03 11:47:00;;;;;;;1.60;1.30;;;4.30;98.20;;;;;;5020329;28;20531;-79
2021/01/03 11:49:27;;;;;;;1.70;1.40;;;4.20;98.20;;;;;;5031289;28;20521;-80
2021/01/03 11:51:53;;;;;;;1.70;1.50;;;4.20;98.20;;;;;;5035649;28;20511;-78
2021/01/03 11:54:21;;;;;;;1.70;1.40;;;4.30;98.20;;;;;;5026302;28;20518;-79
2021/01/03 11:56:52;;;;;;;1.60;1.40;;;4.30;98.20;;;;;;5023731;28;20991;-79
2021/01/03 11:59:19;;;;;;;1.60;1.30;;;4.30;98.20;;;;;;5026151;28;20495;-79
2021/01/03 12:01:45;;;;;;;1.63;1.40;;;4.30;98.20;;;;;;5025156;28;20577;-79
2021/01/03 12:04:12;;;;;;;1.67;1.40;;;4.30;98.20;;;;;;5023506;28;21338;-79
2021/01/03 12:06:38;;;;;;;1.67;1.40;;;4.30;98.20;;;;;;5025206;28;21087;-78
2021/01/03 12:09:05;;;;;;;3.00;2.80;;;4.20;98.20;;;;;;5027654;28;20452;-79
2021/01/03 12:11:32;;;;;;;1.60;1.30;;;4.30;98.20;;;;;;5022797;28;20472;-79
2021/01/03 12:14:00;;;;;;;1.67;1.40;;;4.30;98.20;;;;;;5023536;28;20464;-78
2021/01/03 12:16:29;;;;;;;1.63;1.40;;;4.30;98.20;;;;;;5021413;28;20918;-78
2021/01/03 12:18:57;;;;;;;1.60;1.40;;;4.30;98.20;;;;;;5027575;28;20559;-80
2021/01/03 12:21:25;;;;;;;1.60;1.40;;;4.30;98.20;;;;;;5033156;28;20557;-79
2021/01/03 12:23:52;;;;;;;1.70;1.50;;;4.30;98.20;;;;;;5021839;28;20478;-79
2021/01/03 12:26:20;;;;;;;1.60;1.40;;;4.30;98.20;;;;;;5019942;28;20552;-78
2021/01/03 12:28:48;;;;;;;1.70;1.40;;;4.30;98.20;;;;;;5024560;28;20460;-79
2021/01/03 12:31:16;;;;;;;1.60;1.30;;;4.30;98.20;;;;;;5022484;28;20497;-79
2021/01/03 12:33:42;;;;;;;1.60;1.40;;;4.30;98.20;;;;;;5023414;28;20570;-78
2021/01/03 12:36:09;;;;;;;1.60;1.40;;;4.30;98.20;;;;;;5025935;28;20531;-78
2021/01/03 12:38:36;;;;;;;1.70;1.40;;;4.30;98.20;;;;;;5025402;28;20581;-78
2021/01/03 12:41:02;;;;;;;1.70;1.40;;;4.30;98.20;;;;;;5022502;28;20890;-80
2021/01/03 12:43:29;;;;;;;1.80;1.70;;;4.30;98.20;;;;;;5023796;28;20549;-79
2021/01/03 12:45:56;;;;;;;1.70;1.50;;;4.30;98.20;;;;;;5020032;28;20494;-80
2021/01/03 12:48:23;;;;;;;1.60;1.40;;;4.30;98.20;;;;;;5025083;28;20571;-77
2021/01/03 12:50:49;;;;;;;1.60;1.30;;;4.30;98.20;;;;;;5029234;28;20511;-77
2021/01/03 12:53:16;;;;;;;1.67;1.40;;;4.30;98.20;;;;;;5031289;28;20474;-79
2021/01/03 12:55:42;;;;;;;1.60;1.40;;;4.40;98.20;;;;;;5028151;28;20455;-79
2021/01/03 12:58:09;;;;;;;1.70;1.43;;;4.40;98.20;;;;;;5026551;28;20571;-79
2021/01/03 13:00:35;;;;;;;1.60;1.30;;;4.40;98.20;;;;;;5027543;28;20617;-77
2021/01/03 13:03:03;;;;;;;1.63;1.40;;;4.40;98.20;;;;;;5024959;28;20542;-78
2021/01/03 13:05:29;;;;;;;1.63;1.30;;;4.40;98.20;;;;;;5027326;28;20467;-81
2021/01/03 13:07:56;;;;;;;1.60;1.30;;;4.30;98.20;;;;;;5028492;28;20467;-79
2021/01/03 13:10:22;;;;;;;1.70;1.40;;;4.30;98.20;;;;;;5028080;28;20483;-79
2021/01/03 13:12:48;;;;;;;1.63;1.30;;;4.30;98.20;;;;;;5025915;28;20499;-79
2021/01/03 13:15:15;;;;;;;1.60;1.33;;;4.40;98.20;;;;;;5026629;28;20467;-78
2021/01/03 13:17:42;;;;;;;1.70;1.47;;;4.30;98.20;;;;;;5025076;28;20471;-79